createdAt,value
2022-08-20T00:00:43.179Z,6.53
2022-08-20T00:03:17.235Z,5.93
2022-08-20T00:05:56.701Z,7.28
2022-08-20T00:08:24.136Z,5.68
2022-08-20T00:10:55.543Z,6.53
2022-08-20T00:13:27.068Z,6.57
2022-08-20T00:15:54.309Z,5.75
2022-08-20T00:18:22.536Z,6.93
2022-08-20T00:20:52.899Z,6.45
2022-08-20T00:23:20.611Z,6.38
2022-08-20T00:25:48.338Z,7.15
2022-08-20T00:28:15.686Z,7.93
2022-08-20T00:30:44.234Z,6.97
2022-08-20T00:33:14.008Z,6.57
2022-08-20T00:35:45.541Z,6.45
2022-08-20T00:38:13.096Z,6.72
2022-08-20T00:40:53.587Z,6.65
2022-08-20T00:43:40.192Z,7.40
2022-08-20T00:48:39.695Z,6.30
2022-08-20T00:51:32.195Z,6.10
2022-08-20T00:54:06.664Z,5.90
2022-08-20T00:56:35.084Z,6.20
2022-08-20T00:59:05.216Z,6.22
2022-08-20T01:01:34.564Z,5.63
2022-08-20T01:04:21.479Z,5.03
2022-08-20T01:06:48.578Z,5.55
2022-08-20T01:09:15.560Z,6.00
2022-08-20T01:11:42.564Z,5.50
2022-08-20T01:14:21.930Z,5.22
2022-08-20T01:16:51.235Z,5.13
2022-08-20T01:19:30.181Z,4.97
2022-08-20T01:21:59.271Z,5.75
2022-08-20T01:24:38.339Z,5.47
2022-08-20T01:27:06.447Z,6.85
2022-08-20T01:29:39.594Z,6.55
2022-08-20T01:32:07.052Z,5.63
2022-08-20T01:34:33.960Z,7.05
2022-08-20T01:37:00.937Z,6.88
2022-08-20T01:39:31.237Z,6.60
2022-08-20T01:42:10.013Z,6.40
2022-08-20T01:44:39.340Z,6.22
2022-08-20T01:47:12.854Z,6.38
2022-08-20T01:49:45.747Z,5.30
2022-08-20T01:52:24.946Z,6.38
2022-08-20T01:54:52.548Z,6.47
2022-08-20T01:57:23.550Z,6.22
2022-08-20T01:59:51.054Z,6.65
2022-08-20T02:02:17.918Z,6.07
2022-08-20T02:04:44.791Z,6.40
2022-08-20T02:07:19.894Z,7.00
2022-08-20T02:09:48.332Z,7.03
2022-08-20T02:12:15.730Z,7.20
2022-08-20T02:14:51.353Z,6.55
2022-08-20T02:17:21.099Z,6.60
2022-08-20T02:20:01.334Z,6.88
2022-08-20T02:22:37.730Z,6.18
2022-08-20T02:25:07.683Z,6.40
2022-08-20T02:27:36.459Z,5.72
2022-08-20T02:30:10.573Z,6.65
2022-08-20T02:32:46.111Z,5.93
2022-08-20T02:35:14.923Z,6.70
2022-08-20T02:37:43.844Z,6.85
2022-08-20T02:40:15.142Z,6.28
2022-08-20T02:42:43.444Z,7.35
2022-08-20T02:45:18.845Z,7.22
2022-08-20T02:47:46.625Z,6.60
2022-08-20T02:50:17.824Z,6.75
2022-08-20T02:52:51.564Z,4.97
2022-08-20T02:55:27.263Z,5.60
2022-08-20T02:58:01.339Z,5.95
2022-08-20T03:00:38.177Z,5.90
2022-08-20T03:03:10.487Z,6.38
2022-08-20T03:05:39.375Z,6.30
2022-08-20T03:08:09.161Z,5.28
2022-08-20T03:10:38.542Z,5.57
2022-08-20T03:13:07.434Z,5.88
2022-08-20T03:15:34.630Z,5.70
2022-08-20T03:18:01.533Z,5.32
2022-08-20T03:20:29.560Z,5.95
2022-08-20T03:22:56.807Z,5.05
2022-08-20T03:25:24.099Z,5.57
2022-08-20T03:27:54.236Z,5.38
2022-08-20T03:30:23.730Z,6.05
2022-08-20T03:32:50.554Z,5.80
2022-08-20T03:35:19.363Z,4.95
2022-08-20T03:37:48.271Z,5.03
2022-08-20T03:40:19.787Z,5.13
2022-08-20T03:42:46.589Z,4.68
2022-08-20T03:45:17.128Z,5.05
2022-08-20T03:47:47.295Z,4.88
2022-08-20T03:50:14.767Z,5.15
2022-08-20T03:52:54.130Z,4.78
2022-08-20T03:55:23.062Z,5.40
2022-08-20T03:57:57.947Z,5.43
2022-08-20T04:00:40.635Z,5.55
2022-08-20T04:03:08.456Z,5.00
2022-08-20T04:05:40.266Z,5.45
2022-08-20T04:08:15.840Z,5.15
2022-08-20T04:10:42.978Z,5.20
2022-08-20T04:13:09.994Z,4.72
2022-08-20T04:15:37.238Z,4.78
2022-08-20T04:18:07.502Z,4.90
2022-08-20T04:20:36.310Z,5.20
2022-08-20T04:23:04.184Z,4.60
2022-08-20T04:25:35.935Z,5.03
2022-08-20T04:28:06.747Z,4.97
2022-08-20T04:30:34.345Z,5.20
2022-08-20T04:33:01.696Z,5.30
2022-08-20T04:35:30.170Z,5.00
2022-08-20T04:38:08.976Z,5.13
2022-08-20T04:40:57.863Z,5.13
2022-08-20T04:43:29.369Z,5.40
2022-08-20T04:45:58.130Z,5.60
2022-08-20T04:48:27.031Z,5.03
2022-08-20T04:50:53.988Z,5.45
2022-08-20T04:53:25.871Z,5.88
2022-08-20T04:55:54.814Z,5.75
2022-08-20T04:58:31.151Z,6.57
2022-08-20T05:01:01.354Z,5.88
2022-08-20T05:03:29.204Z,6.03
2022-08-20T05:05:56.890Z,5.22
2022-08-20T05:08:26.013Z,5.78
2022-08-20T05:10:56.117Z,4.90
2022-08-20T05:13:33.549Z,5.50
2022-08-20T05:16:02.663Z,5.95
2022-08-20T05:18:33.394Z,5.80
2022-08-20T05:21:06.949Z,5.50
2022-08-20T05:23:42.913Z,5.03
2022-08-20T05:26:16.078Z,5.53
2022-08-20T05:28:57.402Z,5.25
2022-08-20T05:31:32.435Z,5.35
2022-08-20T05:34:12.256Z,6.03
2022-08-20T05:36:42.130Z,5.57
2022-08-20T05:39:10.089Z,5.43
2022-08-20T05:41:38.325Z,4.85
2022-08-20T05:44:09.787Z,5.45
2022-08-20T05:46:40.888Z,4.60
2022-08-20T05:49:15.485Z,6.55
2022-08-20T05:51:42.889Z,4.35
2022-08-20T05:54:09.842Z,4.78
2022-08-20T05:56:37.234Z,4.95
2022-08-20T05:59:07.504Z,4.03
2022-08-20T06:01:37.927Z,4.72
2022-08-20T06:04:24.086Z,4.45
2022-08-20T06:07:02.780Z,5.13
2022-08-20T06:09:32.649Z,3.80
2022-08-20T06:12:06.025Z,4.45
2022-08-20T06:14:33.513Z,4.22
2022-08-20T06:17:09.687Z,4.55
2022-08-20T06:19:38.453Z,4.53
2022-08-20T06:22:17.787Z,4.80
2022-08-20T06:24:46.889Z,3.55
2022-08-20T06:27:15.958Z,4.47
2022-08-20T06:29:43.421Z,4.07
2022-08-20T06:32:10.463Z,4.57
2022-08-20T06:34:37.403Z,3.92
2022-08-20T06:37:14.490Z,4.45
2022-08-20T06:39:41.449Z,3.95
2022-08-20T06:42:08.477Z,4.07
2022-08-20T06:44:35.570Z,4.47
2022-08-20T06:47:04.373Z,4.03
2022-08-20T06:49:34.218Z,3.65
2022-08-20T06:52:03.879Z,3.67
2022-08-20T06:54:31.621Z,3.60
2022-08-20T06:56:58.485Z,4.00
2022-08-20T06:59:25.411Z,3.42
2022-08-20T07:01:56.460Z,3.35
2022-08-20T07:04:26.020Z,3.35
2022-08-20T07:06:54.261Z,3.50
2022-08-20T07:09:21.946Z,4.25
2022-08-20T07:11:49.243Z,3.10
2022-08-20T07:14:19.632Z,3.50
2022-08-20T07:16:47.258Z,3.60
2022-08-20T07:19:14.661Z,3.60
2022-08-20T07:21:41.520Z,3.30
2022-08-20T07:24:09.731Z,3.53
2022-08-20T07:26:36.807Z,3.20
2022-08-20T07:29:04.203Z,3.20
2022-08-20T07:31:50.008Z,3.10
2022-08-20T07:34:16.980Z,3.10
2022-08-20T07:36:48.387Z,3.15
2022-08-20T07:39:15.361Z,3.05
2022-08-20T07:41:43.616Z,2.95
2022-08-20T07:44:14.293Z,2.72
2022-08-20T07:46:41.123Z,2.65
2022-08-20T07:49:09.586Z,2.65
2022-08-20T07:51:37.380Z,3.17
2022-08-20T07:54:05.998Z,2.80
2022-08-20T07:56:32.853Z,2.50
2022-08-20T07:59:01.509Z,2.38
2022-08-20T08:01:31.357Z,2.28
2022-08-20T08:03:59.704Z,1.98
2022-08-20T08:06:29.149Z,2.10
2022-08-20T08:09:03.679Z,1.80
2022-08-20T08:11:32.605Z,1.85
2022-08-20T08:14:00.281Z,2.00
2022-08-20T08:16:28.946Z,2.05
2022-08-20T08:18:56.878Z,1.60
2022-08-20T08:21:24.984Z,1.80
2022-08-20T08:23:53.735Z,2.03
2022-08-20T08:26:21.886Z,1.98
2022-08-20T08:28:48.665Z,1.90
2022-08-20T08:31:15.808Z,2.10
2022-08-20T08:33:42.912Z,1.70
2022-08-20T08:36:12.451Z,1.60
2022-08-20T08:38:41.186Z,1.40
2022-08-20T08:41:24.987Z,1.58
2022-08-20T08:43:54.647Z,1.50
2022-08-20T08:46:28.005Z,1.40
2022-08-20T08:49:01.581Z,1.20
2022-08-20T08:51:42.507Z,1.20
2022-08-20T08:54:16.379Z,1.33
2022-08-20T08:56:43.482Z,1.10
2022-08-20T08:59:16.610Z,1.50
2022-08-20T09:01:55.574Z,1.25
2022-08-20T09:04:31.406Z,1.58
2022-08-20T09:06:59.204Z,1.40
2022-08-20T09:09:31.399Z,1.33
2022-08-20T09:12:11.816Z,1.67
2022-08-20T09:14:39.508Z,1.30
2022-08-20T09:17:06.919Z,1.42
2022-08-20T09:19:33.936Z,1.30
2022-08-20T09:22:07.863Z,1.30
2022-08-20T09:24:34.656Z,1.15
2022-08-20T09:27:01.432Z,1.00
2022-08-20T09:29:29.369Z,1.15
2022-08-20T09:32:16.211Z,1.10
2022-08-20T09:34:51.867Z,1.02
2022-08-20T09:37:19.648Z,0.88
2022-08-20T09:39:47.781Z,1.15
2022-08-20T09:42:17.843Z,1.25
2022-08-20T09:44:45.189Z,1.08
2022-08-20T09:47:12.155Z,1.02
2022-08-20T09:49:39.453Z,1.30
2022-08-20T09:52:08.853Z,1.40
2022-08-20T09:54:37.406Z,0.90
2022-08-20T09:57:07.235Z,1.02
2022-08-20T09:59:35.153Z,1.00
2022-08-20T10:02:02.530Z,1.00
2022-08-20T10:04:29.359Z,0.77
2022-08-20T10:06:56.568Z,0.80
2022-08-20T10:09:24.009Z,0.90
2022-08-20T10:11:50.837Z,0.82
2022-08-20T10:14:17.649Z,1.00
2022-08-20T10:16:44.505Z,0.90
2022-08-20T10:19:11.285Z,0.73
2022-08-20T10:21:38.996Z,1.42
2022-08-20T10:24:06.162Z,0.90
2022-08-20T10:26:33.032Z,0.90
2022-08-20T10:28:59.846Z,1.05
2022-08-20T10:31:26.680Z,1.13
2022-08-20T10:33:53.513Z,1.13
2022-08-20T10:36:20.369Z,0.85
2022-08-20T10:38:48.978Z,0.90
2022-08-20T10:41:15.964Z,0.90
2022-08-20T10:43:42.741Z,1.10
2022-08-20T10:46:09.779Z,1.17
2022-08-20T10:48:36.582Z,1.05
2022-08-20T10:51:03.940Z,1.02
2022-08-20T10:53:31.149Z,0.77
2022-08-20T10:55:58.431Z,1.20
2022-08-20T10:58:26.542Z,0.88
2022-08-20T11:01:04.817Z,0.80
2022-08-20T11:03:31.789Z,1.08
2022-08-20T11:05:58.644Z,0.93
2022-08-20T11:08:34.335Z,0.77
2022-08-20T11:11:04.374Z,1.23
2022-08-20T11:13:31.379Z,0.80
2022-08-20T11:15:58.148Z,1.00
2022-08-20T11:18:25.062Z,0.90
2022-08-20T11:20:52.349Z,0.82
2022-08-20T11:23:20.171Z,0.80
2022-08-20T11:25:47.543Z,0.90
2022-08-20T11:28:14.984Z,0.80
2022-08-20T11:30:41.885Z,0.70
2022-08-20T11:33:08.901Z,0.82
2022-08-20T11:35:49.246Z,0.80
2022-08-20T11:38:17.483Z,0.70
2022-08-20T11:40:46.554Z,0.90
2022-08-20T11:43:15.184Z,0.90
2022-08-20T11:45:52.663Z,0.65
2022-08-20T11:48:19.486Z,0.80
2022-08-20T11:50:47.815Z,0.80
2022-08-20T11:53:15.110Z,1.17
2022-08-20T11:55:42.168Z,0.90
2022-08-20T11:58:09.930Z,0.60
2022-08-20T12:00:37.113Z,0.90
2022-08-20T12:03:08.685Z,0.90
2022-08-20T12:05:38.410Z,0.80
2022-08-20T12:08:06.337Z,1.05
2022-08-20T12:10:33.829Z,0.75
2022-08-20T12:13:02.646Z,3.65
2022-08-20T12:15:32.680Z,1.27
2022-08-20T12:17:59.524Z,3.75
2022-08-20T12:20:26.434Z,14.38
2022-08-20T12:22:54.048Z,3.85
2022-08-20T12:25:21.231Z,2.92
2022-08-20T12:27:48.072Z,1.95
2022-08-20T12:30:19.832Z,1.20
2022-08-20T12:32:47.593Z,1.02
2022-08-20T12:35:16.087Z,1.80
2022-08-20T12:37:44.111Z,2.22
2022-08-20T12:40:15.508Z,1.40
2022-08-20T12:42:42.593Z,1.00
2022-08-20T12:45:09.952Z,0.80
2022-08-20T12:47:44.942Z,0.85
2022-08-20T12:50:15.988Z,1.97
2022-08-20T12:52:43.267Z,1.42
2022-08-20T12:55:12.325Z,2.13
2022-08-20T12:57:51.863Z,2.80
2022-08-20T13:00:22.679Z,2.42
2022-08-20T13:02:52.561Z,2.85
2022-08-20T13:05:20.142Z,2.03
2022-08-20T13:07:47.817Z,1.88
2022-08-20T13:10:22.408Z,2.80
2022-08-20T13:12:49.754Z,1.75
2022-08-20T13:15:17.344Z,2.75
2022-08-20T13:17:44.261Z,1.30
2022-08-20T13:20:15.898Z,7.35
2022-08-20T13:22:42.964Z,16.23
2022-08-20T13:25:11.500Z,3.58
2022-08-20T13:27:40.306Z,6.13
2022-08-20T13:30:09.446Z,9.23
2022-08-20T13:32:36.591Z,3.00
2022-08-20T13:35:03.838Z,4.32
2022-08-20T13:37:30.718Z,2.25
2022-08-20T13:39:59.526Z,1.70
2022-08-20T13:42:27.753Z,1.40
2022-08-20T13:44:54.718Z,1.95
2022-08-20T13:47:36.673Z,1.30
2022-08-20T13:50:10.805Z,0.73
2022-08-20T13:52:38.905Z,0.90
2022-08-20T13:55:08.866Z,0.80
2022-08-20T13:57:36.323Z,0.80
2022-08-20T14:00:13.311Z,1.10
2022-08-20T14:02:41.772Z,0.40
2022-08-20T14:05:09.940Z,0.75
2022-08-20T14:07:37.872Z,0.60
2022-08-20T14:10:08.799Z,0.50
2022-08-20T14:12:35.983Z,0.60
2022-08-20T14:15:04.377Z,0.45
2022-08-20T14:17:38.063Z,0.75
2022-08-20T14:20:15.266Z,0.60
2022-08-20T14:22:42.822Z,0.55
2022-08-20T14:25:11.754Z,0.43
2022-08-20T14:27:38.917Z,0.47
2022-08-20T14:30:09.952Z,0.47
2022-08-20T14:32:36.779Z,0.47
2022-08-20T14:35:04.407Z,0.40
2022-08-20T14:37:39.630Z,0.63
2022-08-20T14:40:10.376Z,0.50
2022-08-20T14:42:37.938Z,0.40
2022-08-20T14:45:07.660Z,0.60
2022-08-20T14:47:39.038Z,0.82
2022-08-20T14:50:17.366Z,0.40
2022-08-20T14:52:45.078Z,0.85
2022-08-20T14:55:15.563Z,0.70
2022-08-20T14:57:43.357Z,0.50
2022-08-20T15:00:14.389Z,0.75
2022-08-20T15:02:41.230Z,0.30
2022-08-20T15:05:08.927Z,0.43
2022-08-20T15:07:39.292Z,0.50
2022-08-20T15:10:12.733Z,0.40
2022-08-20T15:12:39.560Z,0.60
2022-08-20T15:15:15.988Z,0.45
2022-08-20T15:17:45.396Z,0.40
2022-08-20T15:20:20.716Z,0.40
2022-08-20T15:22:49.238Z,0.32
2022-08-20T15:25:19.645Z,0.30
2022-08-20T15:27:47.040Z,0.35
2022-08-20T15:30:17.885Z,0.40
2022-08-20T15:32:45.162Z,0.68
2022-08-20T15:35:13.196Z,0.63
2022-08-20T15:37:42.519Z,0.50
2022-08-20T15:40:11.133Z,0.70
2022-08-20T15:42:38.544Z,0.50
2022-08-20T15:45:08.859Z,0.65
2022-08-20T15:47:49.058Z,0.52
2022-08-20T15:50:42.388Z,0.30
2022-08-20T15:53:12.989Z,0.22
2022-08-20T15:55:57.718Z,0.45
2022-08-20T15:58:35.962Z,0.77
2022-08-20T16:01:34.890Z,0.47
2022-08-20T16:04:10.621Z,0.70
2022-08-20T16:06:38.702Z,0.30
2022-08-20T16:09:30.074Z,0.40
2022-08-20T16:12:10.198Z,0.40
2022-08-20T16:14:46.596Z,0.55
2022-08-20T16:17:21.807Z,0.50
2022-08-20T16:20:08.799Z,0.77
2022-08-20T16:22:40.815Z,0.20
2022-08-20T16:25:08.202Z,0.80
2022-08-20T16:27:51.659Z,0.52
2022-08-20T16:30:39.316Z,0.32
2022-08-20T16:33:30.356Z,0.50
2022-08-20T16:36:10.995Z,0.43
2022-08-20T16:38:48.212Z,0.40
2022-08-20T16:41:24.443Z,0.30
2022-08-20T16:44:12.474Z,0.55
2022-08-20T16:46:47.235Z,0.47
2022-08-20T16:49:15.356Z,0.30
2022-08-20T16:51:51.933Z,0.40
2022-08-20T16:54:28.417Z,0.30
2022-08-20T16:57:01.448Z,0.30
2022-08-20T16:59:28.595Z,0.30
2022-08-20T17:02:10.531Z,0.30
2022-08-20T17:04:59.471Z,0.40
2022-08-20T17:07:52.954Z,0.30
2022-08-20T17:10:20.501Z,0.30
2022-08-20T17:12:53.568Z,0.80
2022-08-20T17:15:25.490Z,0.50
2022-08-20T17:17:55.649Z,1.02
2022-08-20T17:20:29.122Z,0.30
2022-08-20T17:23:09.457Z,0.40
2022-08-20T17:25:38.394Z,0.30
2022-08-20T17:28:23.699Z,0.50
2022-08-20T17:30:50.764Z,0.60
2022-08-20T17:33:26.803Z,0.60
2022-08-20T17:38:38.080Z,0.77
2022-08-20T17:41:17.828Z,0.35
2022-08-20T17:43:45.407Z,0.28
2022-08-20T17:46:18.852Z,0.43
2022-08-20T17:48:48.131Z,0.80
2022-08-20T17:51:21.955Z,0.50
2022-08-20T17:53:56.336Z,0.52
2022-08-20T17:56:28.858Z,0.50
2022-08-20T18:00:00.102Z,0.70
2022-08-20T18:02:19.008Z,0.50
2022-08-20T18:04:48.824Z,0.50
2022-08-20T18:07:24.628Z,0.47
2022-08-20T18:10:03.604Z,0.47
2022-08-20T18:12:40.284Z,0.52
2022-08-20T18:15:24.695Z,0.50
2022-08-20T18:17:58.216Z,0.32
2022-08-20T18:20:39.823Z,0.70
2022-08-20T18:23:23.951Z,0.70
2022-08-20T18:25:56.319Z,0.60
2022-08-20T18:28:38.697Z,0.50
2022-08-20T18:31:08.961Z,0.80
2022-08-20T18:33:43.545Z,0.80
2022-08-20T18:36:30.384Z,0.60
2022-08-20T18:39:03.797Z,0.85
2022-08-20T18:41:32.782Z,0.70
2022-08-20T18:44:06.308Z,0.90
2022-08-20T18:46:34.603Z,0.68
2022-08-20T18:49:08.801Z,0.60
2022-08-20T18:51:41.309Z,0.90
2022-08-20T18:54:09.053Z,0.70
2022-08-20T18:56:42.848Z,1.00
2022-08-20T18:59:19.760Z,0.60
2022-08-20T19:01:49.128Z,0.60
2022-08-20T19:04:31.949Z,0.80
2022-08-20T19:07:04.909Z,1.30
2022-08-20T19:09:56.111Z,1.80
2022-08-20T19:13:14.149Z,1.85
2022-08-20T19:15:48.390Z,1.80
2022-08-20T19:18:24.817Z,1.90
2022-08-20T19:20:56.782Z,1.33
2022-08-20T19:23:27.162Z,1.30
2022-08-20T19:26:01.650Z,1.25
2022-08-20T19:28:46.587Z,1.35
2022-08-20T19:31:19.022Z,1.17
2022-08-20T19:33:46.912Z,1.08
2022-08-20T19:36:28.069Z,1.15
2022-08-20T19:38:59.669Z,0.88
2022-08-20T19:41:31.370Z,0.82
2022-08-20T19:44:00.106Z,0.90
2022-08-20T19:46:31.213Z,0.90
2022-08-20T19:49:23.886Z,1.38
2022-08-20T19:52:07.285Z,0.90
2022-08-20T19:54:45.601Z,0.82
2022-08-20T19:57:13.546Z,0.93
2022-08-20T19:59:57.946Z,0.80
2022-08-20T20:02:28.956Z,0.73
2022-08-20T20:04:58.099Z,0.70
2022-08-20T20:07:37.457Z,0.90
2022-08-20T20:10:08.145Z,0.82
2022-08-20T20:12:35.418Z,0.50
2022-08-20T20:15:03.012Z,0.50
2022-08-20T20:17:34.277Z,0.52
2022-08-20T20:20:16.825Z,0.70
2022-08-20T20:22:56.439Z,0.75
2022-08-20T20:25:39.588Z,0.60
2022-08-20T20:28:19.040Z,0.50
2022-08-20T20:30:46.284Z,0.63
2022-08-20T20:33:22.187Z,0.73
2022-08-20T20:36:05.675Z,0.85
2022-08-20T20:38:32.802Z,0.60
2022-08-20T20:41:02.375Z,0.60
2022-08-20T20:43:32.229Z,0.68
2022-08-20T20:46:01.631Z,0.73
2022-08-20T20:48:32.875Z,0.60
2022-08-20T20:51:11.763Z,0.50
2022-08-20T20:53:51.644Z,0.45
2022-08-20T20:56:30.985Z,0.50
2022-08-20T20:59:00.295Z,0.63
2022-08-20T21:01:48.369Z,0.60
2022-08-20T21:04:17.603Z,0.53
2022-08-20T21:06:44.469Z,0.40
2022-08-20T21:09:11.260Z,1.05
2022-08-20T21:11:38.081Z,0.63
2022-08-20T21:14:05.014Z,0.43
2022-08-20T21:16:31.848Z,0.60
2022-08-20T21:18:58.636Z,0.57
2022-08-20T21:21:25.530Z,0.70
2022-08-20T21:23:54.352Z,0.47
2022-08-20T21:27:04.722Z,0.50
2022-08-20T21:29:33.118Z,0.60
2022-08-20T21:32:00.315Z,0.80
2022-08-20T21:34:27.542Z,0.93
2022-08-20T21:36:54.673Z,0.80
2022-08-20T21:39:23.132Z,0.80
2022-08-20T21:41:51.502Z,0.70
2022-08-20T21:44:29.875Z,0.68
2022-08-20T21:46:57.089Z,0.93
2022-08-20T21:49:25.128Z,0.65
2022-08-20T21:51:52.642Z,0.60
2022-08-20T21:54:19.961Z,0.60
2022-08-20T21:56:52.677Z,0.73
2022-08-20T21:59:21.736Z,0.82
2022-08-20T22:01:48.848Z,0.43
2022-08-20T22:04:15.733Z,0.93
2022-08-20T22:06:42.550Z,0.55
2022-08-20T22:09:09.726Z,0.60
2022-08-20T22:11:37.059Z,0.70
2022-08-20T22:14:07.340Z,1.02
2022-08-20T22:16:34.768Z,0.80
2022-08-20T22:19:01.735Z,0.68
2022-08-20T22:21:31.431Z,1.23
2022-08-20T22:24:00.506Z,0.80
2022-08-20T22:26:27.539Z,0.55
2022-08-20T22:28:54.821Z,0.73
2022-08-20T22:31:28.552Z,0.65
2022-08-20T22:33:56.587Z,0.43
2022-08-20T22:36:25.286Z,0.52
2022-08-20T22:38:54.713Z,0.70
2022-08-20T22:41:22.193Z,0.57
2022-08-20T22:43:56.276Z,0.73
2022-08-20T22:46:27.176Z,0.80
2022-08-20T22:48:55.300Z,0.77
2022-08-20T22:51:27.516Z,0.68
2022-08-20T22:53:54.354Z,0.80
2022-08-20T22:56:21.972Z,0.80
2022-08-20T22:58:50.235Z,0.80
2022-08-20T23:01:17.933Z,0.85
2022-08-20T23:03:44.806Z,0.70
2022-08-20T23:06:13.099Z,0.60
2022-08-20T23:08:41.750Z,1.00
2022-08-20T23:11:08.969Z,0.90
2022-08-20T23:13:35.808Z,0.75
2022-08-20T23:16:03.199Z,0.88
2022-08-20T23:18:30.257Z,0.90
2022-08-20T23:20:58.982Z,0.90
2022-08-20T23:23:27.181Z,0.88
2022-08-20T23:25:54.617Z,0.90
2022-08-20T23:28:24.753Z,0.70
2022-08-20T23:30:51.865Z,0.70
2022-08-20T23:33:19.345Z,1.23
2022-08-20T23:35:46.542Z,0.77
2022-08-20T23:38:13.901Z,0.93
2022-08-20T23:40:41.294Z,0.80
2022-08-20T23:43:08.640Z,0.80
2022-08-20T23:45:39.701Z,0.60
2022-08-20T23:48:07.907Z,0.75
2022-08-20T23:50:34.891Z,0.95
2022-08-20T23:53:01.653Z,1.00
2022-08-20T23:55:28.439Z,0.73
2022-08-20T23:57:55.314Z,0.70
